This is the latest recevied weather packets stored in our database for station/object SQ3RAX-13. If no packets are shown the sender has not sent any weather packets the latest 10 day(s).
| Time | Temp. | Humidity | Pressure | Rain* | Wind** | Luminosity | Snow |
|---|---|---|---|---|---|---|---|
| 1777853767 | 14.44° C | 51% | 1012 hPa | 0 mm | - | - | - |
| 1777853167 | 14.44° C | 51% | 1012 hPa | 0 mm | - | - | - |
| 1777852567 | 13.89° C | 58% | 1012 hPa | 0 mm | - | - | - |
| 1777851967 | 13.89° C | 57% | 1012 hPa | 0 mm | - | - | - |
| 1777851367 | 13.89° C | 57% | 1012 hPa | 0 mm | - | - | - |
| 1777850767 | 15.56° C | 48% | 1012 hPa | 0 mm | - | - | - |
| 1777850167 | 15.56° C | 48% | 1012 hPa | 0 mm | - | - | - |
| 1777849567 | 14.44° C | 57% | 1012 hPa | 0 mm | - | - | - |
| 1777848967 | 14.44° C | 57% | 1012 hPa | 0 mm | - | - | - |
| 1777848367 | 15° C | 57% | 1012 hPa | 0 mm | - | - | - |
| 1777847767 | 15° C | 57% | 1012 hPa | 0 mm | - | - | - |
| 1777847167 | 16.11° C | 46% | 1012 hPa | 0 mm | - | - | - |
| 1777846567 | 16.11° C | 55% | 1012 hPa | 0 mm | - | - | - |
| 1777845967 | 16.11° C | 55% | 1012 hPa | 0 mm | - | - | - |
| 1777845367 | 16.11° C | 55% | 1012 hPa | 0 mm | - | - | - |
| 1777844767 | 16.11° C | 54% | 1012 hPa | 0 mm | - | - | - |
| 1777844167 | 16.11° C | 54% | 1012 hPa | 0 mm | - | - | - |
| 1777843567 | 17.78° C | 42% | 1012 hPa | 0 mm | - | - | - |
| 1777842967 | 17.78° C | 41% | 1012 hPa | 0 mm | - | - | - |
| 1777842367 | 17.22° C | 51% | 1012 hPa | 0 mm | - | - | - |
| 1777841767 | 17.22° C | 51% | 1012 hPa | 0 mm | - | - | - |
| 1777841167 | 17.78° C | 51% | 1012 hPa | 0 mm | - | - | - |
| 1777840567 | 17.78° C | 51% | 1012 hPa | 0 mm | - | - | - |
| 1777839967 | 19.44° C | 39% | 1012 hPa | 0 mm | - | - | - |
| 1777839367 | 19.44° C | 38% | 1012 hPa | 0 mm | - | - | - |
* Rain latest hour (hover to see other rain measurements)
** Current wind speed in m/s (hover to see current wind gust speed)